Terminal Aerodrome Forecast
Issued by NWS

Home | Current Version | Previous Version | Text Only | Print | Product List | Glossary On
Versions: 1 2 3 4 5 6 7 8 9 10 11 12 13 14 15 16 17 18 19 20 21 22 23 24 25 26 27
000
FTUS43 KLSX 271738
TAFCPS
TAF
KCPS 271738Z 2718/2818 26009KT P6SM BKN030
     FM272100 27008KT P6SM BKN035
     FM280100 12004KT P6SM SCT140
     FM280900 15006KT P6SM VCSH OVC090
     FM281500 15010KT P6SM VCSH OVC025=

USA.gov is the U.S. government's official web portal to all federal, state and local government web resources and services.